createdAt,value
2023-03-22T00:01:53.876Z,95253.19
2023-03-22T00:04:39.633Z,95251.56
2023-03-22T00:07:26.650Z,95235.06
2023-03-22T00:10:12.628Z,95255.28
2023-03-22T00:12:58.386Z,95242.94
2023-03-22T00:15:49.208Z,95247.91
2023-03-22T00:18:35.188Z,95255.97
2023-03-22T00:21:21.372Z,95254.13
2023-03-22T00:24:07.645Z,95253.28
2023-03-22T00:26:53.682Z,95239.06
2023-03-22T00:29:39.508Z,95239.88
2023-03-22T00:32:25.485Z,95250.00
2023-03-22T00:35:12.250Z,95253.28
2023-03-22T00:37:58.576Z,95233.69
2023-03-22T00:40:44.859Z,95253.50
2023-03-22T00:43:30.633Z,95249.81
2023-03-22T00:46:19.384Z,95257.66
2023-03-22T00:49:05.904Z,95249.41
2023-03-22T00:51:51.801Z,95250.81
2023-03-22T00:54:37.635Z,95252.69
2023-03-22T00:57:23.948Z,95246.28
2023-03-22T01:00:16.209Z,95221.94
2023-03-22T01:03:04.893Z,95230.78
2023-03-22T01:05:55.525Z,95230.38
2023-03-22T01:08:42.054Z,95232.44
2023-03-22T01:11:28.428Z,95233.50
2023-03-22T01:14:14.238Z,95231.22
2023-03-22T01:17:00.465Z,95236.41
2023-03-22T01:19:46.692Z,95234.97
2023-03-22T01:22:33.109Z,95237.84
2023-03-22T01:25:19.079Z,95207.13
2023-03-22T01:28:06.917Z,95220.97
2023-03-22T01:30:53.075Z,95241.81
2023-03-22T01:33:38.917Z,95234.81
2023-03-22T01:36:24.817Z,95232.53
2023-03-22T01:39:11.122Z,95226.75
2023-03-22T01:41:59.229Z,95224.88
2023-03-22T01:45:13.778Z,95242.44
2023-03-22T01:48:22.144Z,95237.09
2023-03-22T01:51:11.527Z,95223.88
2023-03-22T01:54:18.717Z,95257.53
2023-03-22T01:57:05.393Z,95251.75
2023-03-22T01:59:57.694Z,95247.22
2023-03-22T02:02:59.811Z,95243.28
2023-03-22T02:05:54.184Z,95228.66
2023-03-22T02:08:43.214Z,95254.66
2023-03-22T02:11:41.557Z,95242.25
2023-03-22T02:15:03.409Z,95240.00
2023-03-22T02:18:16.466Z,95263.34
2023-03-22T02:21:27.157Z,95245.16
2023-03-22T02:24:32.919Z,95264.75
2023-03-22T02:27:53.137Z,95265.19
2023-03-22T02:31:17.774Z,95249.91
2023-03-22T02:34:15.954Z,95274.06
2023-03-22T02:37:23.107Z,95249.47
2023-03-22T02:40:16.768Z,95266.84
2023-03-22T02:43:18.891Z,95276.50
2023-03-22T02:46:09.056Z,95271.16
2023-03-22T02:49:07.848Z,95283.31
2023-03-22T02:52:00.310Z,95253.78
2023-03-22T02:54:58.278Z,95262.69
2023-03-22T02:57:53.131Z,95279.81
2023-03-22T03:00:40.757Z,95277.13
2023-03-22T03:03:30.175Z,95276.09
2023-03-22T03:06:19.352Z,95285.19
2023-03-22T03:09:05.568Z,95281.25
2023-03-22T03:11:53.489Z,95256.25
2023-03-22T03:14:42.297Z,95277.53
2023-03-22T03:17:37.508Z,95285.78
2023-03-22T03:20:39.063Z,95283.28
2023-03-22T03:23:38.201Z,95282.03
2023-03-22T03:26:24.046Z,95262.00
2023-03-22T03:29:28.745Z,95282.91
2023-03-22T03:32:14.560Z,95285.50
2023-03-22T03:35:06.750Z,95279.34
2023-03-22T03:37:57.733Z,95263.22
2023-03-22T03:40:50.483Z,95263.22
2023-03-22T03:43:37.333Z,95288.81
2023-03-22T03:46:24.518Z,95295.22
2023-03-22T03:49:12.469Z,95283.03
2023-03-22T03:51:59.890Z,95302.03
2023-03-22T03:54:46.004Z,95314.22
2023-03-22T03:57:36.943Z,95310.50
2023-03-22T04:00:23.240Z,95298.50
2023-03-22T04:03:27.910Z,95302.66
2023-03-22T04:06:34.758Z,95309.88
2023-03-22T04:09:29.543Z,95306.78
2023-03-22T04:12:20.989Z,95309.47
2023-03-22T04:15:36.286Z,95289.44
2023-03-22T04:18:29.719Z,95308.41
2023-03-22T04:21:19.836Z,95313.16
2023-03-22T04:24:13.626Z,95308.25
2023-03-22T04:27:01.953Z,95318.53
2023-03-22T04:29:58.106Z,95315.69
2023-03-22T04:33:07.188Z,95325.59
2023-03-22T04:36:17.536Z,95329.69
2023-03-22T04:39:35.772Z,95321.41
2023-03-22T04:42:57.509Z,95330.91
2023-03-22T04:46:04.419Z,95341.25
2023-03-22T04:48:58.182Z,95360.22
2023-03-22T04:51:44.063Z,95339.38
2023-03-22T04:54:53.088Z,95343.09
2023-03-22T04:57:38.885Z,95363.88
2023-03-22T05:00:24.663Z,95357.09
2023-03-22T05:03:12.162Z,95342.59
2023-03-22T05:06:06.613Z,95354.41
2023-03-22T05:09:24.843Z,95354.59
2023-03-22T05:12:12.607Z,95335.16
2023-03-22T05:15:06.756Z,95358.94
2023-03-22T05:17:56.336Z,95358.31
2023-03-22T05:20:43.442Z,95367.41
2023-03-22T05:23:43.086Z,95353.75
2023-03-22T05:26:30.712Z,95360.59
2023-03-22T05:29:17.078Z,95357.72
2023-03-22T05:32:19.674Z,95379.59
2023-03-22T05:35:07.677Z,95368.88
2023-03-22T05:37:58.466Z,95367.44
2023-03-22T05:40:47.246Z,95375.06
2023-03-22T05:43:33.771Z,95375.50
2023-03-22T05:46:19.977Z,95362.31
2023-03-22T05:49:28.413Z,95379.66
2023-03-22T05:52:15.419Z,95378.44
2023-03-22T05:55:27.640Z,95370.19
2023-03-22T05:58:19.229Z,95386.09
2023-03-22T06:01:09.424Z,95385.50
2023-03-22T06:04:18.766Z,95376.63
2023-03-22T06:07:15.461Z,95391.50
2023-03-22T06:10:07.894Z,95382.22
2023-03-22T06:12:55.467Z,95389.66
2023-03-22T06:15:47.884Z,95396.66
2023-03-22T06:18:40.795Z,95383.03
2023-03-22T06:21:30.474Z,95403.09
2023-03-22T06:24:16.752Z,95389.69
2023-03-22T06:27:02.945Z,95404.56
2023-03-22T06:29:51.026Z,95399.84
2023-03-22T06:32:41.796Z,95402.94
2023-03-22T06:35:28.196Z,95406.66
2023-03-22T06:38:14.196Z,95407.50
2023-03-22T06:41:00.066Z,95407.72
2023-03-22T06:43:46.486Z,95405.03
2023-03-22T06:50:04.100Z,95410.41
2023-03-22T06:53:12.451Z,95396.75
2023-03-22T06:55:59.203Z,95403.34
2023-03-22T06:58:46.053Z,95404.81
2023-03-22T07:01:32.416Z,95406.25
2023-03-22T07:04:20.073Z,95403.13
2023-03-22T07:07:07.478Z,95430.00
2023-03-22T07:09:54.775Z,95415.91
2023-03-22T07:12:41.128Z,95415.06
2023-03-22T07:15:33.012Z,95402.25
2023-03-22T07:18:24.432Z,95388.38
2023-03-22T07:21:10.373Z,95411.91
2023-03-22T07:23:59.171Z,95411.88
2023-03-22T07:26:47.948Z,95418.66
2023-03-22T07:29:38.373Z,95414.09
2023-03-22T07:32:25.357Z,95414.13
2023-03-22T07:35:24.999Z,95426.50
2023-03-22T07:38:13.115Z,95384.13
2023-03-22T07:41:00.604Z,95419.19
2023-03-22T07:44:15.277Z,95412.16
2023-03-22T07:47:10.949Z,95418.09
2023-03-22T07:50:02.832Z,95414.97
2023-03-22T07:52:52.864Z,95413.25
2023-03-22T07:55:39.315Z,95421.69
2023-03-22T07:58:25.270Z,95419.00
2023-03-22T08:01:11.331Z,95409.63
2023-03-22T08:04:16.023Z,95423.91
2023-03-22T08:07:25.062Z,95422.53
2023-03-22T08:10:11.934Z,95411.66
2023-03-22T08:12:57.651Z,95407.75
2023-03-22T08:15:45.517Z,95405.38
2023-03-22T08:18:32.316Z,95416.16
2023-03-22T08:21:18.261Z,95398.88
2023-03-22T08:24:09.760Z,95395.13
2023-03-22T08:27:28.115Z,95416.78
2023-03-22T08:30:16.649Z,95401.00
2023-03-22T08:33:02.883Z,95409.09
2023-03-22T08:35:48.741Z,95403.84
2023-03-22T08:38:34.801Z,95390.94
2023-03-22T08:41:21.124Z,95413.75
2023-03-22T08:44:07.208Z,95399.16
2023-03-22T08:46:54.796Z,95396.94
2023-03-22T08:49:41.862Z,95398.41
2023-03-22T08:52:37.949Z,95396.22
2023-03-22T08:55:28.408Z,95410.59
2023-03-22T08:58:32.560Z,95404.09
2023-03-22T09:01:41.742Z,95394.66
2023-03-22T09:04:28.919Z,95395.03
2023-03-22T09:07:17.562Z,95407.72
2023-03-22T09:10:08.862Z,95382.22
2023-03-22T09:12:57.729Z,95398.16
2023-03-22T09:15:45.139Z,95383.44
2023-03-22T09:18:38.319Z,95395.69
2023-03-22T09:21:29.918Z,95397.13
2023-03-22T09:24:36.122Z,95408.06
2023-03-22T09:27:23.135Z,95401.75
2023-03-22T09:30:10.330Z,95380.69
2023-03-22T09:32:56.398Z,95380.34
2023-03-22T09:35:43.674Z,95386.97
2023-03-22T09:38:33.909Z,95384.63
2023-03-22T09:41:52.766Z,95389.34
2023-03-22T09:44:43.963Z,95391.66
2023-03-22T09:47:51.741Z,95379.41
2023-03-22T09:50:43.158Z,95381.09
2023-03-22T09:53:32.612Z,95367.69
2023-03-22T09:56:26.160Z,95375.25
2023-03-22T09:59:44.380Z,95377.00
2023-03-22T10:02:45.841Z,95376.59
2023-03-22T10:05:39.893Z,95376.31
2023-03-22T10:08:33.918Z,95369.38
2023-03-22T10:12:05.114Z,95372.69
2023-03-22T10:15:00.443Z,95368.56
2023-03-22T10:17:51.451Z,95356.22
2023-03-22T10:20:42.405Z,95370.34
2023-03-22T10:23:44.232Z,95375.63
2023-03-22T10:26:42.720Z,95367.03
2023-03-22T10:29:38.966Z,95369.63
2023-03-22T10:33:04.608Z,95375.38
2023-03-22T10:35:51.556Z,95377.72
2023-03-22T10:38:43.861Z,95376.19
2023-03-22T10:41:30.395Z,95381.97
2023-03-22T10:44:18.306Z,95373.38
2023-03-22T10:47:08.233Z,95370.69
2023-03-22T10:49:56.194Z,95369.03
2023-03-22T10:52:50.345Z,95361.06
2023-03-22T10:55:41.844Z,95361.38
2023-03-22T10:58:35.024Z,95360.56
2023-03-22T11:01:32.835Z,95357.16
2023-03-22T11:04:20.727Z,95352.75
2023-03-22T11:07:06.785Z,95342.75
2023-03-22T11:10:22.015Z,95345.81
2023-03-22T11:13:07.613Z,95324.88
2023-03-22T11:16:02.409Z,95333.22
2023-03-22T11:18:48.776Z,95334.47
2023-03-22T11:21:35.106Z,95338.25
2023-03-22T11:24:22.256Z,95335.31
2023-03-22T11:27:33.123Z,95332.16
2023-03-22T11:30:29.171Z,95328.25
2023-03-22T11:33:18.605Z,95320.38
2023-03-22T11:36:16.455Z,95306.59
2023-03-22T11:39:07.889Z,95319.59
2023-03-22T11:41:57.719Z,95317.97
2023-03-22T11:44:44.632Z,95305.50
2023-03-22T11:47:34.641Z,95317.22
2023-03-22T11:50:32.924Z,95306.16
2023-03-22T11:53:23.206Z,95310.63
2023-03-22T11:56:11.444Z,95296.00
2023-03-22T11:59:16.653Z,95306.94
2023-03-22T12:02:26.858Z,95312.53
2023-03-22T12:05:19.340Z,95315.94
2023-03-22T12:08:17.014Z,95306.50
2023-03-22T12:11:06.649Z,95297.38
2023-03-22T12:14:02.039Z,95311.81
2023-03-22T12:16:56.226Z,95301.47
2023-03-22T12:19:48.628Z,95311.25
2023-03-22T12:22:35.622Z,95313.88
2023-03-22T12:25:25.780Z,95312.06
2023-03-22T12:28:18.807Z,95296.28
2023-03-22T12:31:08.048Z,95308.00
2023-03-22T12:33:55.372Z,95307.28
2023-03-22T12:36:43.931Z,95306.00
2023-03-22T12:39:41.274Z,95287.97
2023-03-22T12:42:27.411Z,95308.31
2023-03-22T12:45:17.404Z,95289.97
2023-03-22T12:48:25.526Z,95301.34
2023-03-22T12:51:13.647Z,95304.56
2023-03-22T12:54:00.809Z,95298.38
2023-03-22T12:56:47.021Z,95289.34
2023-03-22T12:59:33.046Z,95302.25
2023-03-22T13:02:25.120Z,95292.75
2023-03-22T13:05:11.216Z,95302.34
2023-03-22T13:07:59.375Z,95293.41
2023-03-22T13:10:58.003Z,95284.63
2023-03-22T13:13:46.218Z,95303.84
2023-03-22T13:16:53.247Z,95296.59
2023-03-22T13:19:39.394Z,95295.63
2023-03-22T13:22:30.558Z,95290.78
2023-03-22T13:25:29.110Z,95285.53
2023-03-22T13:28:26.386Z,95271.63
2023-03-22T13:31:32.379Z,95284.19
2023-03-22T13:34:20.998Z,95281.66
2023-03-22T13:37:17.968Z,95281.66
2023-03-22T13:40:32.415Z,95294.00
2023-03-22T13:43:34.637Z,95283.16
2023-03-22T13:46:20.862Z,95287.59
2023-03-22T13:49:26.706Z,95292.59
2023-03-22T13:52:34.428Z,95283.53
2023-03-22T13:55:42.545Z,95257.78
2023-03-22T13:58:50.794Z,95271.69
2023-03-22T14:01:47.662Z,95263.81
2023-03-22T14:04:39.542Z,95283.84
2023-03-22T14:07:33.454Z,95279.53
2023-03-22T14:10:31.709Z,95275.63
2023-03-22T14:13:27.726Z,95278.13
2023-03-22T14:16:22.483Z,95275.97
2023-03-22T14:19:16.406Z,95262.56
